FKYS/NSI METAR and TAF weather

Enter ICAO airport designator
Station Type Date Time Source
FKYS METAR 2020/09/20 10:00 UTC NOAA

FKYS 201000Z 25005KT 200V300 9999 BKN011 26/22 Q1018 BECMG BKN016


Station Type Date Time Source
FKYS Decoded METAR 2020/09/20 10:00 UTC NOAA

Yaounde, Cameroon (FKYS) 03-50N 011-31E 760M
Sep 20, 2020 - 06:00 AM EDT / 2020.09.20 1000 UTC
Wind: from the WSW (250 degrees) at 6 MPH (5 KT) (direction variable):0
Visibility: greater than 7 mile(s):0
Sky conditions: mostly cloudy
Temperature: 78 F (26 C)
Dew Point: 71 F (22 C)
Relative Humidity: 78%
Pressure (altimeter): 30.06 in. Hg (1018 hPa)
ob: FKYS 201000Z 25005KT 200V300 9999 BKN011 26/22 Q1018 BECMG BKN016
cycle: 10

Station Type Date Time Source
FKYS TAF 2020/09/20 06:51 UTC NOAA

TAF FKYS 200500Z 2006/2106 30004KT 8000 BKN006
BECMG 2009/2011 BKN016
TEMPO 2015/2020 4000 TSRA BKN010 FEW020CB
BECMG 2020/2022 BKN006

Example: see airport list